To NAV CANADA Home Page Login to a new session Search on AWWS site Feedback and Comments Disclaimer Vers la page française équivalente Tips FAQ What's new on the site To the Forecasts and Observations / NOTAM section To "File a Flight Plan" website Publications and other links Update of the User's profile FIC Telephone Numbers My Weather Data Folder Route Weather Data Regional Weather Data Local Weather Data To the Forecasts and Observations / NOTAM section
Request Generated 03/23/2017 at 00:11:02 UTC . Weather information available at that time is displayed.

METAR/TAF

DEASE LAKE/BC    (show WxCam)

METAR CYDL 230000Z AUTO 36010G18KT 310V030 9SM BKN060 BKN074 03/M06
A2937 RMK SLP968=
METAR CYDL 222300Z AUTO 35010G18KT 310V030 9SM BKN055 BKN079 03/M06
A2938 RMK SLP973=
METAR CYDL 222200Z AUTO 35008G15KT 310V030 9SM OVC048 02/M06 A2940
RMK SLP976=

TAF CYDL 222341Z 2300/2302 35010G20KT P6SM SCT050 BKN080 TEMPO
2300/2302 5SM -SN SCT020 BKN050
RMK FCST BASED ON AUTO OBS. NXT FCST WILL BE ISSUED AT 231545Z=
Your time UTC time
Weather data provided by Environment Canada and NAV CANADA